Time;durP1;ratioP1;P1;durP2;ratioP2;P2;SDS_P1;SDS_P2;PMS_P1;PMS_P2;Temp;Humidity;BMP_temperature;BMP_pressure;BME280_temperature;BME280_humidity;BME280_pressure;Samples;Min_cycle;Max_cycle;Signal;HPM_P1;HPM_P2
2022/09/16 00:01:54;;;;;;;7.80;2.70;;;;;;;;;;5062690;28;20260;-76
2022/09/16 00:04:21;;;;;;;6.87;3.00;;;;;;;;;;5073376;28;20295;-76
2022/09/16 00:06:48;;;;;;;4.83;2.77;;;;;;;;;;5069159;28;21705;-75
2022/09/16 00:09:15;;;;;;;7.30;2.77;;;;;;;;;;5053172;28;20231;-75
2022/09/16 00:11:44;;;;;;;6.07;2.77;;;;;;;;;;5053292;28;20235;-76
2022/09/16 00:14:11;;;;;;;5.50;2.57;;;;;;;;;;5064510;28;20235;-75
2022/09/16 00:16:39;;;;;;;8.70;3.00;;;;;;;;;;5073375;28;20227;-76
2022/09/16 00:19:06;;;;;;;6.20;2.90;;;;;;;;;;5072285;28;20221;-76
2022/09/16 00:21:33;;;;;;;9.97;3.00;;;;;;;;;;5071040;28;20282;-75
2022/09/16 00:24:00;;;;;;;7.13;2.90;;;;;;;;;;5072530;28;20293;-75
2022/09/16 00:26:28;;;;;;;7.40;2.80;;;;;;;;;;5070581;28;20254;-75
2022/09/16 00:28:57;;;;;;;9.70;3.07;;;;;;;;;;5054829;28;20200;-76
2022/09/16 00:31:24;;;;;;;6.23;2.73;;;;;;;;;;5052943;28;20686;-75
2022/09/16 00:33:51;;;;;;;10.40;3.27;;;;;;;;;;5070867;28;20250;-76
2022/09/16 00:36:19;;;;;;;9.47;2.90;;;;;;;;;;5068117;28;20284;-75
2022/09/16 00:38:50;;;;;;;9.07;3.00;;;;;;;;;;5066636;28;20249;-75
2022/09/16 00:41:19;;;;;;;7.83;3.00;;;;;;;;;;5072497;28;20203;-76
2022/09/16 00:43:47;;;;;;;9.80;3.27;;;;;;;;;;5059263;28;20258;-76
2022/09/16 00:46:17;;;;;;;4.70;2.70;;;;;;;;;;5071572;28;20262;-76
2022/09/16 00:48:44;;;;;;;6.23;3.10;;;;;;;;;;5071165;28;20243;-75
2022/09/16 00:51:12;;;;;;;8.00;2.80;;;;;;;;;;5063039;28;20267;-75
2022/09/16 00:53:41;;;;;;;5.10;2.80;;;;;;;;;;5059735;28;20283;-75
2022/09/16 00:56:10;;;;;;;5.43;3.10;;;;;;;;;;5052339;28;20235;-75
2022/09/16 00:58:40;;;;;;;7.13;3.23;;;;;;;;;;5061781;28;20236;-75
2022/09/16 01:01:07;;;;;;;7.73;3.03;;;;;;;;;;5071784;28;20226;-76
2022/09/16 01:03:41;;;;;;;7.93;2.80;;;;;;;;;;5072242;28;20207;-76
2022/09/16 01:06:09;;;;;;;7.27;3.10;;;;;;;;;;5071642;28;20607;-76
2022/09/16 01:08:36;;;;;;;5.43;2.63;;;;;;;;;;5072302;28;20203;-76
2022/09/16 01:11:03;;;;;;;8.40;3.07;;;;;;;;;;5072261;28;20237;-75
2022/09/16 01:13:31;;;;;;;6.77;3.00;;;;;;;;;;5071350;28;20231;-76
2022/09/16 01:16:00;;;;;;;5.43;3.10;;;;;;;;;;5071980;28;20289;-75
2022/09/16 01:18:32;;;;;;;6.97;2.80;;;;;;;;;;5052296;28;20291;-75
2022/09/16 01:21:14;;;;;;;7.33;3.17;;;;;;;;;;5052246;28;20196;-76
2022/09/16 01:23:56;;;;;;;5.53;3.23;;;;;;;;;;5054694;28;20307;-76
2022/09/16 01:26:34;;;;;;;5.83;3.20;;;;;;;;;;5072485;28;20257;-75
2022/09/16 01:29:18;;;;;;;8.60;3.47;;;;;;;;;;5071763;28;20234;-76
2022/09/16 01:31:49;;;;;;;9.00;3.43;;;;;;;;;;5051823;28;20274;-75
2022/09/16 01:34:20;;;;;;;7.63;3.50;;;;;;;;;;5060779;28;20290;-75
2022/09/16 01:36:51;;;;;;;7.33;3.33;;;;;;;;;;5065593;28;20196;-75
2022/09/16 01:39:23;;;;;;;6.90;3.80;;;;;;;;;;5058417;28;20266;-75
2022/09/16 01:41:58;;;;;;;7.40;3.53;;;;;;;;;;5063653;28;20210;-75
2022/09/16 01:44:29;;;;;;;10.07;3.73;;;;;;;;;;5066706;28;20222;-75
2022/09/16 01:47:02;;;;;;;6.20;3.47;;;;;;;;;;5051738;28;20314;-75
2022/09/16 01:49:35;;;;;;;8.73;3.70;;;;;;;;;;5051512;28;20805;-75
2022/09/16 01:52:07;;;;;;;6.30;3.50;;;;;;;;;;5051568;28;20287;-76
2022/09/16 01:54:37;;;;;;;7.10;3.00;;;;;;;;;;5051863;28;20726;-75
2022/09/16 01:57:06;;;;;;;5.13;3.00;;;;;;;;;;5051732;28;20287;-75
2022/09/16 01:59:37;;;;;;;6.73;3.10;;;;;;;;;;5070415;28;20309;-75
2022/09/16 02:02:08;;;;;;;9.53;3.40;;;;;;;;;;5071441;28;20237;-75
2022/09/16 02:04:37;;;;;;;6.27;2.83;;;;;;;;;;5059112;28;20203;-75
2022/09/16 02:07:07;;;;;;;7.47;3.00;;;;;;;;;;5065506;28;20251;-76
2022/09/16 02:09:38;;;;;;;5.67;3.10;;;;;;;;;;5070568;28;20239;-76
2022/09/16 02:12:09;;;;;;;5.20;3.43;;;;;;;;;;5064700;28;20238;-75
2022/09/16 02:14:40;;;;;;;5.83;3.20;;;;;;;;;;5066548;28;20203;-76
2022/09/16 02:17:10;;;;;;;9.30;3.43;;;;;;;;;;5055839;28;20231;-75
2022/09/16 02:19:40;;;;;;;4.93;3.40;;;;;;;;;;5054643;28;20231;-76
2022/09/16 02:22:09;;;;;;;6.53;3.53;;;;;;;;;;5055555;28;20235;-75
2022/09/16 02:24:37;;;;;;;6.47;3.70;;;;;;;;;;5062213;28;20238;-75
2022/09/16 02:27:07;;;;;;;6.07;3.50;;;;;;;;;;5057339;28;20309;-75
2022/09/16 02:29:38;;;;;;;10.73;3.77;;;;;;;;;;5069589;28;20802;-76
2022/09/16 02:32:08;;;;;;;9.53;4.00;;;;;;;;;;5073878;28;20286;-75
2022/09/16 02:34:39;;;;;;;5.60;3.03;;;;;;;;;;5054952;28;20607;-75
2022/09/16 02:37:08;;;;;;;8.30;3.40;;;;;;;;;;5071899;28;20227;-76
2022/09/16 02:39:37;;;;;;;4.60;3.57;;;;;;;;;;5059444;28;20241;-76
2022/09/16 02:42:05;;;;;;;5.13;3.73;;;;;;;;;;5074653;28;20261;-76
2022/09/16 02:44:33;;;;;;;8.33;4.03;;;;;;;;;;5065212;28;20274;-76
2022/09/16 02:47:01;;;;;;;5.53;3.83;;;;;;;;;;5054690;28;20244;-76
2022/09/16 02:49:30;;;;;;;8.50;4.33;;;;;;;;;;5054937;28;20235;-76
2022/09/16 02:52:04;;;;;;;7.13;4.00;;;;;;;;;;5054750;28;20196;-76
2022/09/16 02:54:35;;;;;;;5.27;3.83;;;;;;;;;;5055030;28;20294;-76
2022/09/16 02:57:03;;;;;;;6.03;3.90;;;;;;;;;;5053736;28;20206;-75
2022/09/16 02:59:30;;;;;;;7.70;4.00;;;;;;;;;;5072227;28;20736;-75
2022/09/16 03:01:59;;;;;;;9.00;3.70;;;;;;;;;;5070286;28;20229;-75
2022/09/16 03:04:26;;;;;;;7.23;3.70;;;;;;;;;;5064164;28;20208;-75
2022/09/16 03:06:53;;;;;;;6.83;3.50;;;;;;;;;;5066187;28;20262;-75
2022/09/16 03:09:23;;;;;;;6.10;3.70;;;;;;;;;;5074248;28;20221;-76
2022/09/16 03:12:13;;;;;;;6.13;4.30;;;;;;;;;;5067541;28;20192;-76
2022/09/16 03:14:59;;;;;;;7.40;3.80;;;;;;;;;;5059630;28;20207;-75
2022/09/16 03:17:33;;;;;;;5.90;4.17;;;;;;;;;;5054234;28;20261;-75
2022/09/16 03:20:05;;;;;;;6.23;3.03;;;;;;;;;;5054540;28;20235;-75
2022/09/16 03:22:38;;;;;;;5.07;3.10;;;;;;;;;;5058094;28;20199;-76
2022/09/16 03:25:11;;;;;;;6.57;3.17;;;;;;;;;;5058043;28;20235;-76
2022/09/16 03:27:41;;;;;;;5.47;3.20;;;;;;;;;;5071801;28;20226;-75
2022/09/16 03:30:10;;;;;;;6.57;3.23;;;;;;;;;;5073008;28;20256;-76
2022/09/16 03:32:39;;;;;;;5.30;3.40;;;;;;;;;;5073114;28;20239;-75
2022/09/16 03:35:08;;;;;;;6.10;3.50;;;;;;;;;;5074044;28;20234;-76
2022/09/16 03:37:38;;;;;;;6.10;3.30;;;;;;;;;;5067607;28;20587;-75
2022/09/16 03:40:09;;;;;;;12.90;3.87;;;;;;;;;;5074317;28;20234;-75
2022/09/16 03:42:39;;;;;;;5.27;3.80;;;;;;;;;;5067343;28;20222;-75
2022/09/16 03:45:06;;;;;;;6.60;3.30;;;;;;;;;;5053605;28;20318;-75
2022/09/16 03:47:33;;;;;;;7.40;3.40;;;;;;;;;;5053709;28;20267;-75
2022/09/16 03:50:01;;;;;;;6.30;3.77;;;;;;;;;;5068552;28;20242;-76
2022/09/16 03:52:29;;;;;;;9.00;3.83;;;;;;;;;;5055405;28;20227;-76
2022/09/16 03:54:56;;;;;;;7.07;3.30;;;;;;;;;;5053673;28;20231;-76
2022/09/16 03:57:26;;;;;;;6.40;3.80;;;;;;;;;;5057630;28;20655;-76
2022/09/16 03:59:54;;;;;;;7.00;3.27;;;;;;;;;;5053341;28;20265;-76
2022/09/16 04:02:21;;;;;;;6.90;3.33;;;;;;;;;;5053478;28;20298;-75
2022/09/16 04:04:48;;;;;;;6.27;3.30;;;;;;;;;;5054267;28;20238;-76
2022/09/16 04:07:15;;;;;;;7.57;3.40;;;;;;;;;;5067811;28;20250;-76
2022/09/16 04:09:42;;;;;;;7.33;3.50;;;;;;;;;;5072721;28;20226;-75
2022/09/16 04:12:10;;;;;;;5.03;3.20;;;;;;;;;;5070525;28;20199;-76
2022/09/16 04:14:38;;;;;;;5.03;3.10;;;;;;;;;;5053255;28;20601;-76
2022/09/16 04:17:06;;;;;;;9.00;3.27;;;;;;;;;;5053272;28;20499;-76
2022/09/16 04:19:33;;;;;;;10.10;3.20;;;;;;;;;;5053385;28;20241;-75
2022/09/16 04:22:00;;;;;;;8.90;3.37;;;;;;;;;;5061784;28;20287;-76
2022/09/16 04:24:27;;;;;;;7.97;3.57;;;;;;;;;;5057617;28;20231;-76
2022/09/16 04:26:54;;;;;;;7.67;3.70;;;;;;;;;;5053025;28;20943;-76
2022/09/16 04:29:21;;;;;;;8.47;3.40;;;;;;;;;;5052638;28;20231;-76
2022/09/16 04:31:50;;;;;;;6.80;3.33;;;;;;;;;;5053363;28;20238;-76
2022/09/16 04:34:17;;;;;;;6.53;3.53;;;;;;;;;;5068894;28;20282;-76
2022/09/16 04:36:44;;;;;;;4.00;2.90;;;;;;;;;;5052800;28;20283;-75
2022/09/16 04:39:12;;;;;;;7.33;3.20;;;;;;;;;;5053261;28;20295;-76
2022/09/16 04:41:39;;;;;;;7.07;3.17;;;;;;;;;;5052657;28;20203;-75
2022/09/16 04:44:06;;;;;;;5.40;3.03;;;;;;;;;;5052291;28;20274;-75
2022/09/16 04:46:33;;;;;;;6.80;2.93;;;;;;;;;;5059659;28;20302;-76
2022/09/16 04:49:02;;;;;;;5.53;2.67;;;;;;;;;;5072879;28;20620;-75
2022/09/16 04:51:31;;;;;;;4.10;2.80;;;;;;;;;;5064997;28;20235;-75
2022/09/16 04:53:58;;;;;;;8.03;3.00;;;;;;;;;;5066769;28;20605;-75
2022/09/16 04:56:27;;;;;;;7.23;3.00;;;;;;;;;;5066763;28;20544;-75
2022/09/16 04:58:56;;;;;;;6.07;2.93;;;;;;;;;;5071933;28;20296;-75
2022/09/16 05:01:24;;;;;;;6.23;2.90;;;;;;;;;;5072619;28;20205;-74
2022/09/16 05:03:51;;;;;;;5.57;2.80;;;;;;;;;;5063949;28;20657;-74
2022/09/16 05:06:21;;;;;;;6.67;3.00;;;;;;;;;;5060619;28;20286;-74
2022/09/16 05:08:48;;;;;;;4.60;2.93;;;;;;;;;;5060601;28;20234;-75
2022/09/16 05:11:17;;;;;;;6.20;2.80;;;;;;;;;;5062731;28;20254;-75
2022/09/16 05:13:44;;;;;;;7.27;3.00;;;;;;;;;;5068157;28;20238;-74
2022/09/16 05:16:12;;;;;;;6.03;3.10;;;;;;;;;;5071743;28;20245;-74
2022/09/16 05:18:40;;;;;;;8.10;3.00;;;;;;;;;;5059811;28;20698;-74
2022/09/16 05:21:08;;;;;;;9.20;3.20;;;;;;;;;;5064782;28;20282;-74
2022/09/16 05:23:39;;;;;;;6.03;3.10;;;;;;;;;;5066003;28;20234;-74
2022/09/16 05:26:07;;;;;;;7.10;3.43;;;;;;;;;;5054146;28;20204;-75
2022/09/16 05:28:35;;;;;;;6.50;3.20;;;;;;;;;;5057890;28;20235;-74
2022/09/16 05:31:09;;;;;;;4.23;2.80;;;;;;;;;;5053756;28;20203;-75
2022/09/16 05:33:37;;;;;;;5.93;2.70;;;;;;;;;;5057657;28;20685;-74
2022/09/16 05:36:05;;;;;;;7.07;2.70;;;;;;;;;;5064749;28;20207;-75
2022/09/16 05:38:32;;;;;;;5.47;2.90;;;;;;;;;;5062428;28;20231;-75
2022/09/16 05:41:00;;;;;;;12.00;3.70;;;;;;;;;;5059350;28;20334;-75
2022/09/16 05:43:28;;;;;;;7.20;2.90;;;;;;;;;;5065358;28;20248;-74
2022/09/16 05:45:56;;;;;;;4.53;2.63;;;;;;;;;;5061176;28;20235;-75
2022/09/16 05:48:23;;;;;;;6.03;2.80;;;;;;;;;;5058011;28;20317;-75
2022/09/16 05:50:55;;;;;;;5.50;2.63;;;;;;;;;;5066623;28;20652;-75
2022/09/16 05:53:22;;;;;;;5.37;2.67;;;;;;;;;;5055367;28;20758;-75
2022/09/16 05:55:59;;;;;;;4.37;2.77;;;;;;;;;;5055220;28;20277;-75
2022/09/16 05:58:28;;;;;;;8.53;2.93;;;;;;;;;;5065730;28;20306;-75
2022/09/16 06:00:59;;;;;;;12.90;2.67;;;;;;;;;;5075534;28;20234;-75
2022/09/16 06:03:27;;;;;;;8.63;2.87;;;;;;;;;;5074865;28;20230;-75
2022/09/16 06:05:54;;;;;;;4.90;2.60;;;;;;;;;;5074357;28;20203;-75
2022/09/16 06:08:21;;;;;;;7.83;3.13;;;;;;;;;;5074307;28;20317;-75
2022/09/16 06:10:48;;;;;;;2.87;2.40;;;;;;;;;;5072670;28;20230;-75
2022/09/16 06:13:15;;;;;;;5.30;2.67;;;;;;;;;;5073888;28;20285;-75
2022/09/16 06:15:52;;;;;;;4.43;2.50;;;;;;;;;;5070336;28;20223;-75
2022/09/16 06:18:20;;;;;;;5.13;2.40;;;;;;;;;;5074668;28;20884;-75
2022/09/16 06:20:47;;;;;;;5.27;2.63;;;;;;;;;;5074910;28;20305;-75
2022/09/16 06:23:14;;;;;;;6.87;2.67;;;;;;;;;;5074969;28;20241;-75
2022/09/16 06:25:42;;;;;;;6.03;2.70;;;;;;;;;;5075377;28;20226;-75
2022/09/16 06:28:10;;;;;;;7.13;2.77;;;;;;;;;;5074976;28;20261;-75
2022/09/16 06:30:37;;;;;;;5.43;2.50;;;;;;;;;;5075452;28;20207;-75
2022/09/16 06:33:06;;;;;;;5.73;2.50;;;;;;;;;;5074961;28;20235;-75
2022/09/16 06:35:34;;;;;;;6.37;2.13;;;;;;;;;;5074465;28;20705;-75
2022/09/16 06:38:02;;;;;;;7.03;2.40;;;;;;;;;;5074376;28;20282;-75
2022/09/16 06:40:29;;;;;;;4.97;1.90;;;;;;;;;;5063355;28;20687;-75
2022/09/16 06:42:56;;;;;;;6.30;2.30;;;;;;;;;;5055120;28;20227;-75
2022/09/16 06:45:24;;;;;;;8.73;2.20;;;;;;;;;;5054868;28;20297;-75
2022/09/16 06:47:51;;;;;;;6.40;1.93;;;;;;;;;;5055210;28;20715;-75
2022/09/16 06:50:19;;;;;;;4.27;2.20;;;;;;;;;;5073138;28;20601;-75
2022/09/16 06:52:50;;;;;;;5.87;2.23;;;;;;;;;;5074579;28;20223;-75
2022/09/16 06:55:18;;;;;;;4.70;2.10;;;;;;;;;;5074706;28;20222;-75
2022/09/16 06:57:45;;;;;;;7.00;2.10;;;;;;;;;;5073900;28;20215;-75
2022/09/16 07:00:13;;;;;;;4.43;2.00;;;;;;;;;;5074614;28;20238;-75
2022/09/16 07:02:40;;;;;;;5.17;1.43;;;;;;;;;;5074395;28;20257;-75
2022/09/16 07:05:07;;;;;;;5.40;1.60;;;;;;;;;;5074754;28;20234;-75
2022/09/16 07:07:38;;;;;;;3.53;1.80;;;;;;;;;;5074572;28;20274;-75
2022/09/16 07:10:05;;;;;;;4.80;1.70;;;;;;;;;;5068450;28;20594;-75
2022/09/16 07:12:32;;;;;;;4.07;1.60;;;;;;;;;;5074156;28;20295;-75
2022/09/16 07:15:00;;;;;;;12.03;1.63;;;;;;;;;;5074546;28;20219;-75
2022/09/16 07:17:27;;;;;;;4.67;1.53;;;;;;;;;;5074442;28;20722;-75
2022/09/16 07:19:54;;;;;;;5.10;1.80;;;;;;;;;;5073209;28;20199;-75
2022/09/16 07:22:21;;;;;;;6.87;1.70;;;;;;;;;;5073998;28;20231;-75
2022/09/16 07:24:50;;;;;;;5.70;1.50;;;;;;;;;;5074000;28;20257;-75
2022/09/16 07:27:17;;;;;;;3.67;1.60;;;;;;;;;;5074177;28;20250;-75
2022/09/16 07:29:44;;;;;;;3.53;1.40;;;;;;;;;;5074106;28;21125;-75
2022/09/16 07:32:11;;;;;;;3.60;1.40;;;;;;;;;;5074293;28;20290;-75
2022/09/16 07:34:39;;;;;;;6.20;1.63;;;;;;;;;;5073435;28;20227;-75
2022/09/16 07:37:06;;;;;;;4.83;1.33;;;;;;;;;;5073768;28;20662;-75
2022/09/16 07:39:33;;;;;;;2.93;1.43;;;;;;;;;;5073861;28;20239;-75
2022/09/16 07:42:02;;;;;;;4.70;1.30;;;;;;;;;;5060985;28;20247;-75
2022/09/16 07:44:30;;;;;;;4.60;1.30;;;;;;;;;;5073181;28;20238;-75
2022/09/16 07:46:57;;;;;;;6.63;1.40;;;;;;;;;;5073408;28;20233;-75
2022/09/16 07:49:24;;;;;;;3.63;1.40;;;;;;;;;;5071917;28;20282;-75
2022/09/16 07:51:51;;;;;;;5.00;1.20;;;;;;;;;;5053525;28;20291;-75
2022/09/16 07:54:20;;;;;;;2.80;1.30;;;;;;;;;;5055966;28;20230;-75
2022/09/16 07:56:47;;;;;;;3.07;1.37;;;;;;;;;;5073665;28;20237;-75
2022/09/16 07:59:17;;;;;;;4.97;1.33;;;;;;;;;;5074037;28;20262;-75
2022/09/16 08:01:44;;;;;;;3.43;1.10;;;;;;;;;;5073713;28;20593;-75
2022/09/16 08:04:12;;;;;;;4.50;1.43;;;;;;;;;;5070778;28;20676;-75
2022/09/16 08:06:40;;;;;;;3.17;1.23;;;;;;;;;;5053499;28;20294;-75
2022/09/16 08:09:07;;;;;;;3.57;1.40;;;;;;;;;;5052545;28;20267;-75
2022/09/16 08:11:35;;;;;;;5.47;1.40;;;;;;;;;;5053489;28;20670;-75
2022/09/16 08:14:02;;;;;;;4.67;1.40;;;;;;;;;;5053363;28;20234;-75
2022/09/16 08:16:31;;;;;;;5.63;1.47;;;;;;;;;;5053385;28;20656;-75
2022/09/16 08:18:59;;;;;;;3.70;1.00;;;;;;;;;;5053276;28;20290;-75
2022/09/16 08:21:27;;;;;;;1.73;1.10;;;;;;;;;;5068398;28;20203;-75
2022/09/16 08:23:55;;;;;;;2.10;0.97;;;;;;;;;;5073156;28;20234;-75
2022/09/16 08:26:23;;;;;;;6.77;1.20;;;;;;;;;;5072495;28;20195;-75
2022/09/16 08:28:50;;;;;;;2.37;0.97;;;;;;;;;;5073077;28;20269;-75
2022/09/16 08:31:19;;;;;;;3.83;1.30;;;;;;;;;;5072853;28;20659;-75
2022/09/16 08:33:48;;;;;;;3.00;1.10;;;;;;;;;;5072971;28;20230;-75
2022/09/16 08:36:18;;;;;;;4.37;1.23;;;;;;;;;;5061515;28;20479;-75
2022/09/16 08:38:45;;;;;;;3.67;1.13;;;;;;;;;;5072690;28;20195;-75
2022/09/16 08:41:25;;;;;;;3.90;1.20;;;;;;;;;;5072653;28;20242;-76
2022/09/16 08:43:57;;;;;;;7.30;1.20;;;;;;;;;;5072755;28;20270;-76
2022/09/16 08:46:31;;;;;;;2.70;1.10;;;;;;;;;;5072271;28;20294;-76
2022/09/16 08:49:02;;;;;;;2.65;1.00;;;;;;;;;;5072326;28;20218;-75
2022/09/16 08:51:29;;;;;;;2.42;0.90;;;;;;;;;;5072337;28;20215;-76
2022/09/16 08:53:58;;;;;;;4.30;1.27;;;;;;;;;;5072553;28;20199;-76
2022/09/16 08:56:26;;;;;;;3.45;1.10;;;;;;;;;;5063727;28;20231;-76
2022/09/16 08:58:55;;;;;;;3.80;0.93;;;;;;;;;;5052670;28;20220;-76
2022/09/16 09:01:25;;;;;;;2.67;0.75;;;;;;;;;;5063551;28;20203;-76
2022/09/16 09:03:53;;;;;;;2.20;0.93;;;;;;;;;;5072715;28;20289;-76
2022/09/16 09:06:27;;;;;;;2.30;1.00;;;;;;;;;;5072982;28;20248;-76
2022/09/16 09:08:57;;;;;;;2.50;1.02;;;;;;;;;;5072736;28;20258;-75
2022/09/16 09:11:29;;;;;;;2.72;0.80;;;;;;;;;;5072662;28;20195;-75
2022/09/16 09:14:02;;;;;;;2.08;0.80;;;;;;;;;;5072111;28;20234;-75
2022/09/16 09:16:34;;;;;;;2.33;0.93;;;;;;;;;;5071933;28;20199;-75
2022/09/16 09:19:10;;;;;;;4.45;1.08;;;;;;;;;;5071974;28;20253;-75
2022/09/16 09:21:42;;;;;;;2.28;0.90;;;;;;;;;;5063129;28;20195;-75
2022/09/16 09:24:32;;;;;;;2.75;0.82;;;;;;;;;;5052366;28;20297;-75
2022/09/16 09:27:01;;;;;;;1.08;0.60;;;;;;;;;;5052257;28;20200;-74
2022/09/16 09:29:40;;;;;;;2.53;0.68;;;;;;;;;;5070177;28;20254;-74
2022/09/16 09:32:14;;;;;;;1.83;0.63;;;;;;;;;;5060083;28;20293;-75
2022/09/16 09:34:49;;;;;;;2.10;0.63;;;;;;;;;;5050437;28;20727;-75
2022/09/16 09:37:23;;;;;;;1.50;0.65;;;;;;;;;;5063086;28;20206;-75
2022/09/16 09:40:03;;;;;;;3.08;0.80;;;;;;;;;;5071575;28;20286;-75
2022/09/16 09:42:32;;;;;;;2.50;0.90;;;;;;;;;;5062811;28;20225;-75
2022/09/16 09:45:02;;;;;;;1.33;0.73;;;;;;;;;;5068604;28;20318;-75
2022/09/16 09:47:32;;;;;;;3.20;0.80;;;;;;;;;;5051296;28;20690;-74
2022/09/16 09:50:03;;;;;;;4.47;0.80;;;;;;;;;;5052120;28;20286;-75
2022/09/16 09:52:35;;;;;;;1.88;0.50;;;;;;;;;;5062992;28;20234;-75
2022/09/16 09:55:13;;;;;;;2.38;0.60;;;;;;;;;;5071988;28;20730;-75
2022/09/16 09:57:45;;;;;;;0.95;0.40;;;;;;;;;;5057748;28;20227;-76
2022/09/16 10:00:15;;;;;;;2.70;0.77;;;;;;;;;;5051476;28;20204;-76
2022/09/16 10:02:43;;;;;;;2.80;0.70;;;;;;;;;;5052033;28;20590;-75
2022/09/16 10:05:15;;;;;;;1.95;0.50;;;;;;;;;;5051623;28;20637;-76
2022/09/16 10:07:43;;;;;;;2.03;0.55;;;;;;;;;;5051839;28;20715;-75
2022/09/16 10:10:14;;;;;;;1.73;0.60;;;;;;;;;;5051536;28;20238;-75
2022/09/16 10:12:41;;;;;;;1.80;0.55;;;;;;;;;;5069053;28;20740;-74
2022/09/16 10:15:19;;;;;;;1.58;0.50;;;;;;;;;;5072002;28;20634;-74
2022/09/16 10:17:49;;;;;;;1.25;0.57;;;;;;;;;;5071709;28;20242;-74
2022/09/16 10:20:25;;;;;;;1.45;0.60;;;;;;;;;;5071597;28;20207;-75
2022/09/16 10:22:58;;;;;;;3.55;0.85;;;;;;;;;;5071753;28;20237;-75
2022/09/16 10:25:25;;;;;;;1.65;0.80;;;;;;;;;;5071471;28;20238;-75
2022/09/16 10:27:57;;;;;;;2.25;0.75;;;;;;;;;;5065845;28;20198;-74
2022/09/16 10:30:24;;;;;;;2.45;0.70;;;;;;;;;;5071567;28;20216;-75
2022/09/16 10:32:54;;;;;;;1.48;0.68;;;;;;;;;;5072401;28;20569;-75
2022/09/16 10:35:23;;;;;;;3.20;0.80;;;;;;;;;;5075146;28;20290;-75
2022/09/16 10:37:52;;;;;;;2.20;0.60;;;;;;;;;;5075505;28;20227;-74
2022/09/16 10:40:22;;;;;;;1.45;0.60;;;;;;;;;;5075457;28;20203;-74
2022/09/16 10:42:50;;;;;;;3.60;1.00;;;;;;;;;;5068149;28;20211;-75
2022/09/16 10:45:22;;;;;;;1.90;0.80;;;;;;;;;;5075541;28;21132;-74
2022/09/16 10:47:50;;;;;;;1.38;0.70;;;;;;;;;;5075721;28;20736;-75
2022/09/16 10:50:18;;;;;;;1.87;0.73;;;;;;;;;;4722982;28;10000601;-74
2022/09/16 10:52:46;;;;;;;3.45;0.80;;;;;;;;;;5072269;28;20886;-75
2022/09/16 10:55:22;;;;;;;5.07;0.98;;;;;;;;;;5065393;28;20236;-76
2022/09/16 10:57:51;;;;;;;2.25;0.70;;;;;;;;;;5062984;28;20246;-74
2022/09/16 11:00:19;;;;;;;2.78;0.60;;;;;;;;;;5061543;28;20248;-74
2022/09/16 11:03:05;;;;;;;3.45;0.70;;;;;;;;;;5061389;28;20208;-74
2022/09/16 11:05:34;;;;;;;2.53;0.80;;;;;;;;;;5062354;28;20287;-75
2022/09/16 11:08:07;;;;;;;3.97;0.95;;;;;;;;;;5063357;28;20282;-74
2022/09/16 11:10:38;;;;;;;1.30;0.50;;;;;;;;;;5063254;28;20235;-74
2022/09/16 11:13:29;;;;;;;1.75;0.70;;;;;;;;;;5065243;28;20235;-75
2022/09/16 11:16:04;;;;;;;1.65;0.70;;;;;;;;;;5061385;28;20227;-74
2022/09/16 11:18:38;;;;;;;2.70;0.70;;;;;;;;;;5064351;28;20273;-75
2022/09/16 11:21:35;;;;;;;1.80;0.60;;;;;;;;;;5061746;28;20203;-74
2022/09/16 11:24:08;;;;;;;2.45;0.70;;;;;;;;;;4990358;28;20268;-74
2022/09/16 11:26:40;;;;;;;2.58;0.80;;;;;;;;;;4989622;28;20282;-75
2022/09/16 11:29:17;;;;;;;3.10;0.75;;;;;;;;;;4991088;28;20321;-74
2022/09/16 11:31:48;;;;;;;2.08;0.80;;;;;;;;;;4991199;28;20212;-75
2022/09/16 11:34:21;;;;;;;2.55;0.80;;;;;;;;;;4988968;28;20225;-75
2022/09/16 11:36:54;;;;;;;1.85;0.68;;;;;;;;;;4991242;28;20220;-76
2022/09/16 11:39:27;;;;;;;2.13;0.73;;;;;;;;;;4991033;28;20216;-74
2022/09/16 11:41:59;;;;;;;2.35;0.65;;;;;;;;;;4991290;28;20293;-75
2022/09/16 11:44:45;;;;;;;2.03;0.80;;;;;;;;;;4996034;28;20316;-76
2022/09/16 11:47:33;;;;;;;2.90;0.70;;;;;;;;;;5002390;28;20209;-74
2022/09/16 11:50:08;;;;;;;4.20;1.00;;;;;;;;;;4969265;28;20711;-75
2022/09/16 11:52:44;;;;;;;3.78;0.80;;;;;;;;;;4989129;28;20197;-74
2022/09/16 11:55:20;;;;;;;1.02;0.57;;;;;;;;;;4988426;28;20682;-75
2022/09/16 11:57:51;;;;;;;2.00;0.70;;;;;;;;;;5014598;28;20305;-75
2022/09/16 12:00:19;;;;;;;2.47;0.63;;;;;;;;;;5061917;28;20195;-74
2022/09/16 12:02:50;;;;;;;3.40;0.80;;;;;;;;;;5061356;28;20226;-76
2022/09/16 12:05:20;;;;;;;1.90;1.25;;;;;;;;;;5060396;28;20239;-76
2022/09/16 12:07:51;;;;;;;1.33;0.70;;;;;;;;;;5063606;28;20627;-74
2022/09/16 12:10:21;;;;;;;2.42;0.70;;;;;;;;;;5060556;28;20579;-76
2022/09/16 12:12:51;;;;;;;15.63;2.00;;;;;;;;;;5062703;28;20282;-75
2022/09/16 12:15:20;;;;;;;39.00;4.35;;;;;;;;;;5062074;28;20196;-76
2022/09/16 12:17:54;;;;;;;4.43;1.27;;;;;;;;;;5053040;28;20295;-76
2022/09/16 12:20:25;;;;;;;2.20;0.70;;;;;;;;;;5053122;28;20199;-75
2022/09/16 12:22:55;;;;;;;3.28;0.80;;;;;;;;;;5053450;28;20204;-79
2022/09/16 12:25:26;;;;;;;3.25;0.90;;;;;;;;;;5067905;28;20599;-79
2022/09/16 12:27:56;;;;;;;2.40;0.80;;;;;;;;;;5063533;28;20287;-79
2022/09/16 12:30:25;;;;;;;2.58;0.80;;;;;;;;;;5063562;28;20952;-79
2022/09/16 12:32:57;;;;;;;2.58;0.70;;;;;;;;;;5062953;28;20232;-79
2022/09/16 12:35:28;;;;;;;2.10;0.80;;;;;;;;;;5058248;28;20641;-79
2022/09/16 12:37:56;;;;;;;2.05;0.70;;;;;;;;;;5053257;28;20238;-79
2022/09/16 12:40:25;;;;;;;3.40;0.75;;;;;;;;;;5053063;28;20230;-79
2022/09/16 12:43:16;;;;;;;2.97;0.73;;;;;;;;;;5053181;28;20233;-79
2022/09/16 12:45:54;;;;;;;2.90;0.70;;;;;;;;;;5060477;28;20192;-79
2022/09/16 12:48:31;;;;;;;5.15;0.77;;;;;;;;;;5068687;28;20288;-79
2022/09/16 12:51:06;;;;;;;2.20;0.63;;;;;;;;;;5073005;28;20202;-78
2022/09/16 12:53:55;;;;;;;1.90;0.80;;;;;;;;;;5073131;28;20260;-78
2022/09/16 12:56:34;;;;;;;5.18;0.95;;;;;;;;;;5072025;28;20199;-79
2022/09/16 12:59:15;;;;;;;4.47;0.98;;;;;;;;;;5068810;28;20629;-79
2022/09/16 13:01:45;;;;;;;4.18;0.73;;;;;;;;;;5052745;28;20204;-79
2022/09/16 13:04:16;;;;;;;2.05;0.57;;;;;;;;;;5072756;28;20207;-79
2022/09/16 13:06:48;;;;;;;3.70;0.80;;;;;;;;;;5072515;28;20246;-79
2022/09/16 13:09:20;;;;;;;5.40;0.80;;;;;;;;;;5073028;28;20241;-78
2022/09/16 13:11:53;;;;;;;1.70;0.60;;;;;;;;;;5072323;28;20199;-78
2022/09/16 13:14:22;;;;;;;2.25;0.60;;;;;;;;;;5072754;28;20222;-79
2022/09/16 13:16:53;;;;;;;1.33;0.50;;;;;;;;;;5072507;28;20290;-79
2022/09/16 13:19:29;;;;;;;2.03;0.60;;;;;;;;;;5072058;28;20222;-79
2022/09/16 13:21:59;;;;;;;1.95;0.70;;;;;;;;;;5053037;28;20235;-79
2022/09/16 13:24:31;;;;;;;4.43;1.00;;;;;;;;;;5066684;28;20238;-78
2022/09/16 13:26:58;;;;;;;2.33;0.60;;;;;;;;;;5071762;28;20245;-79
2022/09/16 13:29:27;;;;;;;1.70;0.65;;;;;;;;;;5071366;28;20297;-79
2022/09/16 13:31:55;;;;;;;2.47;0.73;;;;;;;;;;5072295;28;20289;-78
2022/09/16 13:34:22;;;;;;;1.98;0.65;;;;;;;;;;5072418;28;20230;-79
2022/09/16 13:36:50;;;;;;;6.03;0.70;;;;;;;;;;5072246;28;20230;-79
2022/09/16 13:39:28;;;;;;;2.15;0.70;;;;;;;;;;5072033;28;20650;-79
2022/09/16 13:41:55;;;;;;;2.85;0.85;;;;;;;;;;5072282;28;20647;-79
2022/09/16 13:44:30;;;;;;;3.03;0.70;;;;;;;;;;5071811;28;20239;-78
2022/09/16 13:47:13;;;;;;;1.70;0.68;;;;;;;;;;5072534;28;20229;-78
2022/09/16 13:49:42;;;;;;;2.45;0.80;;;;;;;;;;5071559;28;20246;-78
2022/09/16 13:52:11;;;;;;;2.17;0.60;;;;;;;;;;5072023;28;20241;-78
2022/09/16 13:54:41;;;;;;;3.47;0.80;;;;;;;;;;5072127;28;20202;-78
2022/09/16 13:57:19;;;;;;;2.30;0.60;;;;;;;;;;5072556;28;20238;-78
2022/09/16 13:59:56;;;;;;;0.90;0.50;;;;;;;;;;5072103;28;20671;-78
2022/09/16 14:02:30;;;;;;;4.15;0.88;;;;;;;;;;5051847;28;20230;-78
2022/09/16 14:05:03;;;;;;;2.45;0.60;;;;;;;;;;5058160;28;20194;-78
2022/09/16 14:07:37;;;;;;;1.95;0.70;;;;;;;;;;5073688;28;20203;-78
2022/09/16 14:10:08;;;;;;;1.77;0.52;;;;;;;;;;5076207;28;20318;-78
2022/09/16 14:12:42;;;;;;;0.98;0.60;;;;;;;;;;5075768;28;20234;-78
2022/09/16 14:15:10;;;;;;;4.28;0.70;;;;;;;;;;5076215;28;20202;-78
2022/09/16 14:17:39;;;;;;;2.03;0.70;;;;;;;;;;5075795;28;20238;-78
2022/09/16 14:20:11;;;;;;;4.13;0.90;;;;;;;;;;5074881;28;20295;-78
2022/09/16 14:22:43;;;;;;;3.40;0.70;;;;;;;;;;5075085;28;20218;-78
2022/09/16 14:28:18;;;;;;;3.03;0.60;;;;;;;;;;5151702;27;20527;-78
2022/09/16 14:30:46;;;;;;;1.92;0.50;;;;;;;;;;5151294;27;20228;-78
2022/09/16 14:33:14;;;;;;;2.53;0.65;;;;;;;;;;5151174;27;20691;-78
2022/09/16 14:35:42;;;;;;;2.08;0.70;;;;;;;;;;5150162;27;20192;-78
2022/09/16 14:38:09;;;;;;;1.92;0.47;;;;;;;;;;5151270;27;20203;-78
2022/09/16 14:40:40;;;;;;;1.60;0.55;;;;;;;;;;5158175;27;20214;-78
2022/09/16 14:43:08;;;;;;;2.58;0.60;;;;;;;;;;5151008;27;20192;-78
2022/09/16 14:45:37;;;;;;;1.58;0.60;;;;;;;;;;5151325;27;20656;-78
2022/09/16 14:48:07;;;;;;;1.98;0.60;;;;;;;;;;5151113;27;20294;-78
2022/09/16 14:50:37;;;;;;;1.63;0.60;;;;;;;;;;5151151;27;20232;-78
2022/09/16 14:53:05;;;;;;;1.70;0.82;;;;;;;;;;5150694;27;20235;-78
2022/09/16 14:55:36;;;;;;;2.95;0.60;;;;;;;;;;5151015;27;20204;-78
2022/09/16 14:58:04;;;;;;;3.28;0.60;;;;;;;;;;5143722;27;20217;-78
2022/09/16 15:00:34;;;;;;;4.72;0.70;;;;;;;;;;5130658;27;20225;-78
2022/09/16 15:03:06;;;;;;;3.67;0.75;;;;;;;;;;5148872;27;20199;-78
2022/09/16 15:05:34;;;;;;;1.77;0.60;;;;;;;;;;5136593;27;20193;-78